Time,TemperatureF,DewpointF,PressureIn,WindDirection,WindDirectionDegrees,WindSpeedMPH,WindSpeedGustMPH,Humidity,HourlyPrecipIn,Conditions,Clouds,dailyrainin,SolarRadiationWatts/m^2,SoftwareType,DateUTC
2013-06-15 00:02:00,64.0,62.0,-100.00,NNW,333,0.0,2.0,93,0.00,,,0.00,0.000000,,2013-06-15 05:02:00,
2013-06-15 00:34:00,64.0,62.0,-100.00,SE,135,0.0,4.0,94,0.00,,,0.00,0.000000,,2013-06-15 05:34:00,
2013-06-15 00:43:00,64.0,62.0,-100.00,SE,135,0.0,4.0,94,0.00,,,0.00,0.000000,,2013-06-15 05:43:00,
2013-06-15 00:52:00,64.0,62.0,-100.00,SE,135,0.0,4.0,94,0.00,,,0.00,0.000000,,2013-06-15 05:52:00,
2013-06-15 01:02:00,64.0,62.0,-100.00,SE,135,0.0,4.0,94,0.00,,,0.00,0.000000,,2013-06-15 06:02:00,
2013-06-15 01:33:00,63.0,62.0,-100.00,SE,131,2.0,3.0,95,0.00,,,0.00,0.000000,,2013-06-15 06:33:00,
2013-06-15 01:43:00,63.0,62.0,-100.00,SE,131,2.0,3.0,95,0.00,,,0.00,0.000000,,2013-06-15 06:43:00,
2013-06-15 01:53:00,63.0,62.0,-100.00,SE,131,2.0,3.0,95,0.00,,,0.00,0.000000,,2013-06-15 06:53:00,
2013-06-15 02:01:00,63.0,62.0,-100.00,SE,131,2.0,3.0,95,0.00,,,0.00,0.000000,,2013-06-15 07:01:00,
2013-06-15 02:33:00,63.0,61.0,-100.00,North,1,1.0,4.0,94,0.00,,,0.00,0.000000,,2013-06-15 07:33:00,
2013-06-15 02:43:00,63.0,61.0,-100.00,North,1,1.0,4.0,94,0.00,,,0.00,0.000000,,2013-06-15 07:43:00,
2013-06-15 02:53:00,63.0,61.0,-100.00,North,1,1.0,4.0,94,0.00,,,0.00,0.000000,,2013-06-15 07:53:00,
2013-06-15 03:02:00,63.0,61.0,-100.00,North,1,1.0,4.0,94,0.00,,,0.00,0.000000,,2013-06-15 08:02:00,
2013-06-15 03:33:00,62.0,61.0,-100.00,SE,125,0.0,3.0,95,0.00,,,0.00,0.000000,,2013-06-15 08:33:00,
2013-06-15 03:43:00,62.0,61.0,-100.00,SE,125,0.0,3.0,95,0.00,,,0.00,0.000000,,2013-06-15 08:43:00,
2013-06-15 03:53:00,62.0,61.0,-100.00,SE,125,0.0,3.0,95,0.00,,,0.00,0.000000,,2013-06-15 08:53:00,
2013-06-15 04:02:00,62.0,61.0,-100.00,SE,125,0.0,3.0,95,0.00,,,0.00,0.000000,,2013-06-15 09:02:00,
2013-06-15 04:33:00,60.0,59.0,-100.00,NNW,340,2.0,3.0,95,0.00,,,0.00,0.000000,,2013-06-15 09:33:00,
2013-06-15 04:43:00,60.0,59.0,-100.00,NNW,340,2.0,3.0,95,0.00,,,0.00,0.000000,,2013-06-15 09:43:00,
2013-06-15 04:52:00,60.0,59.0,-100.00,NNW,340,2.0,3.0,95,0.00,,,0.00,0.000000,,2013-06-15 09:52:00,
2013-06-15 05:02:00,60.0,59.0,-100.00,NNW,340,2.0,3.0,95,0.00,,,0.00,0.000000,,2013-06-15 10:02:00,
2013-06-15 05:34:00,60.0,59.0,-100.00,North,355,0.0,3.0,97,0.00,,,0.00,0.000000,,2013-06-15 10:34:00,
2013-06-15 05:44:00,60.0,59.0,-100.00,North,355,0.0,3.0,97,0.00,,,0.00,0.000000,,2013-06-15 10:44:00,
2013-06-15 05:53:00,60.0,59.0,-100.00,North,355,0.0,3.0,97,0.00,,,0.00,0.000000,,2013-06-15 10:53:00,
2013-06-15 06:02:00,60.0,59.0,-100.00,North,355,0.0,3.0,97,0.00,,,0.00,0.000000,,2013-06-15 11:02:00,
2013-06-15 06:33:00,60.0,59.0,-100.00,SE,144,0.0,3.0,98,0.00,,,-99.99,7.000000,,2013-06-15 11:33:00,
2013-06-15 06:43:00,60.0,59.0,-100.00,SE,144,0.0,3.0,98,0.00,,,-99.99,7.000000,,2013-06-15 11:43:00,
2013-06-15 06:53:00,60.0,59.0,-100.00,SE,144,0.0,3.0,98,0.00,,,-99.99,7.000000,,2013-06-15 11:53:00,
2013-06-15 07:01:00,60.0,59.0,-100.00,SE,144,0.0,3.0,98,0.00,,,-99.99,7.000000,,2013-06-15 12:01:00,
2013-06-15 07:33:00,63.0,62.0,-100.00,NNW,341,2.0,4.0,95,0.00,,,0.00,64.000000,,2013-06-15 12:33:00,
2013-06-15 07:43:00,63.0,62.0,-100.00,NNW,341,2.0,4.0,95,0.00,,,0.00,64.000000,,2013-06-15 12:43:00,
2013-06-15 07:52:00,63.0,62.0,-100.00,NNW,341,2.0,4.0,95,0.00,,,0.00,64.000000,,2013-06-15 12:52:00,
2013-06-15 08:02:00,63.0,62.0,-100.00,NNW,341,2.0,4.0,95,0.00,,,0.00,64.000000,,2013-06-15 13:02:00,
2013-06-15 08:33:00,69.0,63.0,-100.00,ENE,68,1.0,5.0,81,0.00,,,0.00,198.000000,,2013-06-15 13:33:00,
2013-06-15 08:44:00,69.0,63.0,-100.00,ENE,68,1.0,5.0,81,0.00,,,0.00,198.000000,,2013-06-15 13:44:00,
2013-06-15 08:53:00,69.0,63.0,-100.00,ENE,68,1.0,5.0,81,0.00,,,0.00,198.000000,,2013-06-15 13:53:00,
2013-06-15 09:01:00,69.0,63.0,-100.00,ENE,68,1.0,5.0,81,0.00,,,0.00,198.000000,,2013-06-15 14:01:00,
2013-06-15 09:34:00,76.0,64.0,-100.00,SSE,150,2.0,5.0,66,0.00,,,0.00,528.000000,,2013-06-15 14:34:00,
2013-06-15 09:43:00,76.0,64.0,-100.00,SSE,150,2.0,5.0,66,0.00,,,0.00,528.000000,,2013-06-15 14:43:00,
2013-06-15 09:54:00,76.0,64.0,-100.00,SSE,150,2.0,5.0,66,0.00,,,0.00,528.000000,,2013-06-15 14:54:00,
2013-06-15 10:02:00,76.0,64.0,-100.00,SSE,150,2.0,5.0,66,0.00,,,0.00,528.000000,,2013-06-15 15:02:00,
2013-06-15 10:33:00,80.0,62.0,-100.00,SE,146,5.0,10.0,54,0.00,,,0.00,732.000000,,2013-06-15 15:33:00,
2013-06-15 10:43:00,80.0,62.0,-100.00,SE,146,5.0,10.0,54,0.00,,,0.00,732.000000,,2013-06-15 15:43:00,
2013-06-15 10:53:00,80.0,62.0,-100.00,SE,146,5.0,10.0,54,0.00,,,0.00,732.000000,,2013-06-15 15:53:00,
2013-06-15 11:01:00,80.0,62.0,-100.00,SE,146,5.0,10.0,54,0.00,,,0.00,732.000000,,2013-06-15 16:01:00,
2013-06-15 11:33:00,83.0,63.0,-100.00,SE,145,4.0,10.0,51,0.00,,,-99.99,913.000000,,2013-06-15 16:33:00,
2013-06-15 11:43:00,83.0,63.0,-100.00,SE,145,4.0,10.0,51,0.00,,,-99.99,913.000000,,2013-06-15 16:43:00,
2013-06-15 11:53:00,83.0,63.0,-100.00,SE,145,4.0,10.0,51,0.00,,,-99.99,913.000000,,2013-06-15 16:53:00,
2013-06-15 12:02:00,83.0,63.0,-100.00,SE,145,4.0,10.0,51,0.00,,,-99.99,913.000000,,2013-06-15 17:02:00,
2013-06-15 12:32:00,84.0,62.0,-100.00,SSW,194,3.0,10.0,47,0.00,,,0.00,1008.000000,,2013-06-15 17:32:00,
2013-06-15 12:43:00,84.0,62.0,-100.00,SSW,194,3.0,10.0,47,0.00,,,0.00,1008.000000,,2013-06-15 17:43:00,
2013-06-15 12:52:00,84.0,62.0,-100.00,SSW,194,3.0,10.0,47,0.00,,,0.00,1008.000000,,2013-06-15 17:52:00,
2013-06-15 13:01:00,84.0,62.0,-100.00,SSW,194,3.0,10.0,47,0.00,,,0.00,1008.000000,,2013-06-15 18:01:00,
2013-06-15 13:33:00,86.0,63.0,-100.00,South,170,3.0,11.0,46,0.00,,,0.00,1055.000000,,2013-06-15 18:33:00,
2013-06-15 13:43:00,86.0,63.0,-100.00,South,170,3.0,11.0,46,0.00,,,0.00,1055.000000,,2013-06-15 18:43:00,
2013-06-15 13:53:00,86.0,63.0,-100.00,South,170,3.0,11.0,46,0.00,,,0.00,1055.000000,,2013-06-15 18:53:00,
2013-06-15 14:01:00,86.0,63.0,-100.00,South,170,3.0,11.0,46,0.00,,,0.00,1055.000000,,2013-06-15 19:01:00,
2013-06-15 14:33:00,88.0,62.0,-100.00,SSE,150,3.0,10.0,42,0.00,,,0.00,861.000000,,2013-06-15 19:33:00,
2013-06-15 14:43:00,88.0,62.0,-100.00,SSE,150,3.0,10.0,42,0.00,,,0.00,861.000000,,2013-06-15 19:43:00,
2013-06-15 14:53:00,88.0,62.0,-100.00,SSE,150,3.0,10.0,42,0.00,,,0.00,861.000000,,2013-06-15 19:53:00,
2013-06-15 15:02:00,88.0,62.0,-100.00,SSE,150,3.0,10.0,42,0.00,,,0.00,861.000000,,2013-06-15 20:02:00,
2013-06-15 15:33:00,88.0,63.0,-100.00,SE,146,3.0,8.0,44,0.00,,,0.00,715.000000,,2013-06-15 20:33:00,
2013-06-15 15:43:00,88.0,63.0,-100.00,SE,146,3.0,8.0,44,0.00,,,0.00,715.000000,,2013-06-15 20:43:00,
2013-06-15 15:53:00,88.0,63.0,-100.00,SE,146,3.0,8.0,44,0.00,,,0.00,715.000000,,2013-06-15 20:53:00,
2013-06-15 16:01:00,88.0,63.0,-100.00,SE,146,3.0,8.0,44,0.00,,,0.00,715.000000,,2013-06-15 21:01:00,
2013-06-15 16:34:00,88.0,63.0,-100.00,WSW,238,3.0,10.0,43,0.00,,,0.00,801.000000,,2013-06-15 21:34:00,
2013-06-15 16:42:00,88.0,63.0,-100.00,WSW,238,3.0,10.0,43,0.00,,,0.00,801.000000,,2013-06-15 21:42:00,
2013-06-15 16:53:00,88.0,63.0,-100.00,WSW,238,3.0,10.0,43,0.00,,,0.00,801.000000,,2013-06-15 21:53:00,
2013-06-15 17:01:00,88.0,63.0,-100.00,WSW,238,3.0,10.0,43,0.00,,,0.00,801.000000,,2013-06-15 22:01:00,
2013-06-15 17:33:00,89.0,59.0,-100.00,SW,221,3.0,10.0,37,0.00,,,0.00,708.000000,,2013-06-15 22:33:00,
2013-06-15 17:43:00,89.0,59.0,-100.00,SW,221,3.0,10.0,37,0.00,,,0.00,708.000000,,2013-06-15 22:43:00,
2013-06-15 17:53:00,89.0,59.0,-100.00,SW,221,3.0,10.0,37,0.00,,,0.00,708.000000,,2013-06-15 22:53:00,
2013-06-15 18:02:00,89.0,59.0,-100.00,SW,221,3.0,10.0,37,0.00,,,0.00,708.000000,,2013-06-15 23:02:00,
2013-06-15 18:33:00,88.0,62.0,-100.00,South,191,2.0,7.0,42,0.00,,,0.00,490.000000,,2013-06-15 23:33:00,
2013-06-15 18:43:00,88.0,62.0,-100.00,South,191,2.0,7.0,42,0.00,,,0.00,490.000000,,2013-06-15 23:43:00,
2013-06-15 18:53:00,88.0,62.0,-100.00,South,191,2.0,7.0,42,0.00,,,0.00,490.000000,,2013-06-15 23:53:00,
2013-06-15 19:01:00,88.0,62.0,-100.00,South,191,2.0,7.0,42,0.00,,,0.00,490.000000,,2013-06-16 00:01:00,
2013-06-15 19:34:00,82.0,65.0,-100.00,SE,137,2.0,5.0,56,0.00,,,0.00,163.000000,,2013-06-16 00:34:00,
2013-06-15 19:43:00,82.0,65.0,-100.00,SE,137,2.0,5.0,56,0.00,,,0.00,163.000000,,2013-06-16 00:43:00,
2013-06-15 19:52:00,82.0,65.0,-100.00,SE,137,2.0,5.0,56,0.00,,,0.00,163.000000,,2013-06-16 00:52:00,
2013-06-15 20:01:00,82.0,65.0,-100.00,SE,137,2.0,5.0,56,0.00,,,0.00,163.000000,,2013-06-16 01:01:00,
2013-06-15 20:33:00,78.0,65.0,-100.00,ESE,114,2.0,3.0,64,0.00,,,0.00,46.000000,,2013-06-16 01:33:00,
2013-06-15 20:43:00,78.0,65.0,-100.00,ESE,114,2.0,3.0,64,0.00,,,0.00,46.000000,,2013-06-16 01:43:00,
2013-06-15 20:53:00,78.0,65.0,-100.00,ESE,114,2.0,3.0,64,0.00,,,0.00,46.000000,,2013-06-16 01:53:00,
2013-06-15 21:02:00,78.0,65.0,-100.00,ESE,114,2.0,3.0,64,0.00,,,0.00,46.000000,,2013-06-16 02:02:00,
2013-06-15 21:33:00,76.0,65.0,-100.00,ESE,115,2.0,3.0,68,0.00,,,0.00,1.000000,,2013-06-16 02:33:00,
2013-06-15 21:43:00,76.0,65.0,-100.00,ESE,115,2.0,3.0,68,0.00,,,0.00,1.000000,,2013-06-16 02:43:00,
2013-06-15 21:53:00,76.0,65.0,-100.00,ESE,115,2.0,3.0,68,0.00,,,0.00,1.000000,,2013-06-16 02:53:00,
2013-06-15 22:02:00,76.0,65.0,-100.00,ESE,115,2.0,3.0,68,0.00,,,0.00,1.000000,,2013-06-16 03:02:00,
2013-06-15 22:34:00,74.0,63.0,-100.00,SE,134,2.0,3.0,69,0.00,,,0.00,0.000000,,2013-06-16 03:34:00,
2013-06-15 22:43:00,74.0,63.0,-100.00,SE,134,2.0,3.0,69,0.00,,,0.00,0.000000,,2013-06-16 03:43:00,
2013-06-15 22:53:00,74.0,63.0,-100.00,SE,134,2.0,3.0,69,0.00,,,0.00,0.000000,,2013-06-16 03:53:00,
2013-06-15 23:02:00,74.0,63.0,-100.00,SE,134,2.0,3.0,69,0.00,,,0.00,0.000000,,2013-06-16 04:02:00,
2013-06-15 23:34:00,75.0,64.0,-100.00,NNE,29,1.0,4.0,69,0.00,,,0.00,0.000000,,2013-06-16 04:34:00,
2013-06-15 23:43:00,75.0,64.0,-100.00,NNE,29,1.0,4.0,69,0.00,,,0.00,0.000000,,2013-06-16 04:43:00,
2013-06-15 23:53:00,75.0,64.0,-100.00,NNE,29,1.0,4.0,69,0.00,,,0.00,0.000000,,2013-06-16 04:53:00,